createdAt,value
2023-05-13T00:00:00.343Z,592.00
2023-05-13T00:00:14.358Z,592.00
2023-05-13T00:00:28.375Z,592.00
2023-05-13T00:00:42.366Z,592.00
2023-05-13T00:00:56.379Z,592.00
2023-05-13T00:01:10.378Z,592.00
2023-05-13T00:01:24.406Z,592.00
2023-05-13T00:01:38.405Z,592.00
2023-05-13T00:01:52.407Z,591.00
2023-05-13T00:02:20.487Z,589.00
2023-05-13T00:02:34.580Z,588.00
2023-05-13T00:02:48.711Z,588.00
2023-05-13T00:03:02.913Z,588.00
2023-05-13T00:03:31.015Z,588.00
2023-05-13T00:03:45.206Z,588.00
2023-05-13T00:03:59.284Z,588.00
2023-05-13T00:04:13.283Z,588.00
2023-05-13T00:04:41.233Z,587.00
2023-05-13T00:04:55.228Z,587.00
2023-05-13T00:05:09.223Z,586.00
2023-05-13T00:05:23.208Z,586.00
2023-05-13T00:05:51.242Z,588.00
2023-05-13T00:06:05.287Z,588.00
2023-05-13T00:06:19.355Z,589.00
2023-05-13T00:06:33.377Z,589.00
2023-05-13T00:07:01.395Z,588.00
2023-05-13T00:07:15.375Z,588.00
2023-05-13T00:07:29.373Z,587.00
2023-05-13T00:07:43.397Z,586.00
2023-05-13T00:08:11.368Z,587.00
2023-05-13T00:08:25.394Z,588.00
2023-05-13T00:08:39.409Z,588.00
2023-05-13T00:08:53.429Z,587.00
2023-05-13T00:09:21.370Z,587.00
2023-05-13T00:09:35.358Z,589.00
2023-05-13T00:09:49.354Z,589.00
2023-05-13T00:10:03.356Z,589.00
2023-05-13T00:10:31.329Z,590.00
2023-05-13T00:10:45.329Z,590.00
2023-05-13T00:10:59.332Z,589.00
2023-05-13T00:11:13.343Z,588.00
2023-05-13T00:11:41.347Z,587.00
2023-05-13T00:11:55.365Z,587.00
2023-05-13T00:12:09.364Z,586.00
2023-05-13T00:12:23.373Z,587.00
2023-05-13T00:12:51.342Z,587.00
2023-05-13T00:13:05.337Z,587.00
2023-05-13T00:13:19.338Z,587.00
2023-05-13T00:13:33.333Z,585.00
2023-05-13T00:14:01.337Z,585.00
2023-05-13T00:14:15.328Z,585.00
2023-05-13T00:14:29.335Z,585.00
2023-05-13T00:14:43.317Z,585.00
2023-05-13T00:15:11.312Z,584.00
2023-05-13T00:15:25.330Z,584.00
2023-05-13T00:15:39.351Z,585.00
2023-05-13T00:15:53.383Z,585.00
2023-05-13T00:16:21.421Z,585.00
2023-05-13T00:16:35.456Z,584.00
2023-05-13T00:16:49.550Z,584.00
2023-05-13T00:17:03.582Z,584.00
2023-05-13T00:17:31.560Z,583.00
2023-05-13T00:17:45.600Z,584.00
2023-05-13T00:17:59.650Z,584.00
2023-05-13T00:18:13.683Z,584.00
2023-05-13T00:18:41.693Z,584.00
2023-05-13T00:18:55.889Z,584.00
2023-05-13T00:19:10.050Z,584.00
2023-05-13T00:19:24.066Z,584.00
2023-05-13T00:19:52.060Z,584.00
2023-05-13T00:20:06.058Z,583.00
2023-05-13T00:20:20.195Z,583.00
2023-05-13T00:20:34.342Z,583.00
2023-05-13T00:21:02.303Z,583.00
2023-05-13T00:21:16.285Z,584.00
2023-05-13T00:21:30.263Z,585.00
2023-05-13T00:21:44.266Z,585.00
2023-05-13T00:22:12.238Z,583.00
2023-05-13T00:22:26.223Z,583.00
2023-05-13T00:22:40.212Z,584.00
2023-05-13T00:22:54.206Z,584.00
2023-05-13T00:23:22.177Z,583.00
2023-05-13T00:23:36.193Z,583.00
2023-05-13T00:23:50.184Z,582.00
2023-05-13T00:24:04.204Z,582.00
2023-05-13T00:24:32.174Z,582.00
2023-05-13T00:24:46.151Z,581.00
2023-05-13T00:25:00.155Z,583.00
2023-05-13T00:25:14.139Z,583.00
2023-05-13T00:25:42.105Z,583.00
2023-05-13T00:25:56.133Z,583.00
2023-05-13T00:26:10.134Z,581.00
2023-05-13T00:26:24.132Z,581.00
2023-05-13T00:26:52.105Z,580.00
2023-05-13T00:27:06.100Z,580.00
2023-05-13T00:27:20.081Z,581.00
2023-05-13T00:27:34.090Z,581.00
2023-05-13T00:28:02.044Z,579.00
2023-05-13T00:28:16.048Z,580.00
2023-05-13T00:28:30.021Z,580.00
2023-05-13T00:28:44.067Z,581.00
2023-05-13T00:29:12.025Z,581.00
2023-05-13T00:29:26.023Z,582.00
2023-05-13T00:29:40.032Z,582.00
2023-05-13T00:29:54.055Z,582.00
2023-05-13T00:30:22.155Z,582.00
2023-05-13T00:30:36.220Z,583.00
2023-05-13T00:30:50.240Z,583.00
2023-05-13T00:31:04.303Z,583.00
2023-05-13T00:31:32.442Z,583.00
2023-05-13T00:31:46.511Z,584.00
2023-05-13T00:32:00.620Z,584.00
2023-05-13T00:32:14.690Z,584.00
2023-05-13T00:32:42.719Z,585.00
2023-05-13T00:32:56.794Z,584.00
2023-05-13T00:33:10.809Z,584.00
2023-05-13T00:33:24.788Z,584.00
2023-05-13T00:33:52.741Z,583.00
2023-05-13T00:34:06.761Z,582.00
2023-05-13T00:34:20.752Z,582.00
2023-05-13T00:34:34.757Z,582.00
2023-05-13T00:35:02.702Z,583.00
2023-05-13T00:35:16.786Z,582.00
2023-05-13T00:35:30.822Z,580.00
2023-05-13T00:35:44.805Z,580.00
2023-05-13T00:36:12.755Z,579.00
2023-05-13T00:36:26.742Z,577.00
2023-05-13T00:36:40.743Z,576.00
2023-05-13T00:36:54.729Z,576.00
2023-05-13T00:37:22.701Z,577.00
2023-05-13T00:37:36.700Z,577.00
2023-05-13T00:37:50.689Z,576.00
2023-05-13T00:38:04.690Z,576.00
2023-05-13T00:38:32.680Z,575.00
2023-05-13T00:38:46.671Z,575.00
2023-05-13T00:39:00.660Z,575.00
2023-05-13T00:39:14.647Z,574.00
2023-05-13T00:39:42.602Z,573.00
2023-05-13T00:39:56.589Z,574.00
2023-05-13T00:40:10.574Z,574.00
2023-05-13T00:40:24.641Z,573.00
2023-05-13T00:40:52.621Z,573.00
2023-05-13T00:41:06.618Z,573.00
2023-05-13T00:41:20.613Z,573.00
2023-05-13T00:41:34.608Z,573.00
2023-05-13T00:42:02.561Z,573.00
2023-05-13T00:42:16.553Z,574.00
2023-05-13T00:42:30.532Z,573.00
2023-05-13T00:42:44.524Z,573.00
2023-05-13T00:43:12.485Z,573.00
2023-05-13T00:43:26.519Z,574.00
2023-05-13T00:43:40.534Z,574.00
2023-05-13T00:43:54.509Z,574.00
2023-05-13T00:44:08.530Z,574.00
2023-05-13T00:44:22.539Z,574.00
2023-05-13T00:44:36.529Z,574.00
2023-05-13T00:44:50.529Z,573.00
2023-05-13T00:45:04.526Z,573.00
2023-05-13T00:45:32.569Z,572.00
2023-05-13T00:45:46.586Z,572.00
2023-05-13T00:46:00.722Z,571.00
2023-05-13T00:46:14.797Z,571.00
2023-05-13T00:46:42.760Z,570.00
2023-05-13T00:46:56.789Z,569.00
2023-05-13T00:47:10.795Z,569.00
2023-05-13T00:47:24.861Z,569.00
2023-05-13T00:47:52.895Z,568.00
2023-05-13T00:48:06.918Z,568.00
2023-05-13T00:48:20.906Z,568.00
2023-05-13T00:48:34.913Z,568.00
2023-05-13T00:49:02.903Z,569.00
2023-05-13T00:49:16.887Z,569.00
2023-05-13T00:49:30.880Z,570.00
2023-05-13T00:49:44.870Z,571.00
2023-05-13T00:50:12.841Z,570.00
2023-05-13T00:50:26.852Z,571.00
2023-05-13T00:50:40.845Z,570.00
2023-05-13T00:50:54.835Z,570.00
2023-05-13T00:51:22.773Z,569.00
2023-05-13T00:51:36.749Z,569.00
2023-05-13T00:51:50.749Z,569.00
2023-05-13T00:52:04.765Z,569.00
2023-05-13T00:52:32.800Z,570.00
2023-05-13T00:52:46.788Z,569.00
2023-05-13T00:53:00.775Z,569.00
2023-05-13T00:53:14.773Z,569.00
2023-05-13T00:53:42.738Z,569.00
2023-05-13T00:53:56.746Z,569.00
2023-05-13T00:54:10.757Z,570.00
2023-05-13T00:54:24.748Z,569.00
2023-05-13T00:54:52.688Z,568.00
2023-05-13T00:55:06.670Z,569.00
2023-05-13T00:55:20.660Z,568.00
2023-05-13T00:55:34.651Z,568.00
2023-05-13T00:56:02.624Z,567.00
2023-05-13T00:56:16.614Z,567.00
2023-05-13T00:56:30.609Z,567.00
2023-05-13T00:56:44.593Z,565.00
2023-05-13T00:56:58.592Z,565.00
2023-05-13T00:57:13.468Z,565.00
2023-05-13T00:57:27.489Z,565.00
2023-05-13T00:57:41.486Z,565.00
2023-05-13T00:57:55.488Z,566.00
2023-05-13T00:58:23.451Z,565.00
2023-05-13T00:58:37.448Z,565.00
2023-05-13T00:58:51.462Z,565.00
2023-05-13T00:59:05.458Z,565.00
2023-05-13T00:59:33.433Z,565.00
2023-05-13T00:59:47.417Z,565.00
2023-05-13T01:00:01.443Z,565.00
2023-05-13T01:00:15.441Z,565.00
2023-05-13T01:00:43.425Z,565.00
2023-05-13T01:00:57.488Z,565.00
2023-05-13T01:01:11.597Z,566.00
2023-05-13T01:01:25.683Z,567.00
2023-05-13T01:01:53.720Z,567.00
2023-05-13T01:02:07.784Z,566.00
2023-05-13T01:02:21.843Z,566.00
2023-05-13T01:02:35.910Z,566.00
2023-05-13T01:03:04.049Z,567.00
2023-05-13T01:03:18.223Z,567.00
2023-05-13T01:03:32.316Z,567.00
2023-05-13T01:03:46.359Z,567.00
2023-05-13T01:04:14.328Z,568.00
2023-05-13T01:04:28.350Z,568.00
2023-05-13T01:04:42.373Z,568.00
2023-05-13T01:04:56.379Z,567.00
2023-05-13T01:05:24.329Z,567.00
2023-05-13T01:05:38.313Z,567.00
2023-05-13T01:05:52.308Z,567.00
2023-05-13T01:06:06.299Z,567.00
2023-05-13T01:06:34.296Z,566.00
2023-05-13T01:06:48.284Z,567.00
2023-05-13T01:07:02.276Z,566.00
2023-05-13T01:07:16.274Z,566.00
2023-05-13T01:07:44.260Z,565.00
2023-05-13T01:07:58.245Z,565.00
2023-05-13T01:08:12.241Z,565.00
2023-05-13T01:08:26.208Z,565.00
2023-05-13T01:08:54.161Z,567.00
2023-05-13T01:09:08.158Z,567.00
2023-05-13T01:09:22.133Z,567.00
2023-05-13T01:09:36.124Z,567.00
2023-05-13T01:09:50.121Z,567.00
2023-05-13T01:10:04.121Z,568.00
2023-05-13T01:10:18.113Z,569.00
2023-05-13T01:10:32.108Z,568.00
2023-05-13T01:10:46.097Z,568.00
2023-05-13T01:11:14.036Z,569.00
2023-05-13T01:11:28.028Z,569.00
2023-05-13T01:11:42.017Z,570.00
2023-05-13T01:11:56.005Z,570.00
2023-05-13T01:12:23.959Z,569.00
2023-05-13T01:12:37.944Z,569.00
2023-05-13T01:12:51.940Z,569.00
2023-05-13T01:13:05.934Z,569.00
2023-05-13T01:13:33.886Z,569.00
2023-05-13T01:13:47.910Z,569.00
2023-05-13T01:14:01.906Z,569.00
2023-05-13T01:14:15.924Z,569.00
2023-05-13T01:14:43.882Z,569.00
2023-05-13T01:14:57.864Z,568.00
2023-05-13T01:15:11.857Z,568.00
2023-05-13T01:15:25.844Z,567.00
2023-05-13T01:15:53.818Z,567.00
2023-05-13T01:16:07.814Z,567.00
2023-05-13T01:16:21.842Z,566.00
2023-05-13T01:16:35.941Z,566.00
2023-05-13T01:17:03.997Z,566.00
2023-05-13T01:17:17.984Z,566.00
2023-05-13T01:17:32.071Z,566.00
2023-05-13T01:17:46.117Z,566.00
2023-05-13T01:18:14.140Z,565.00
2023-05-13T01:18:28.202Z,566.00
2023-05-13T01:18:42.319Z,566.00
2023-05-13T01:18:56.433Z,566.00
2023-05-13T01:19:24.499Z,564.00
2023-05-13T01:19:38.488Z,564.00
2023-05-13T01:19:52.470Z,564.00
2023-05-13T01:20:06.463Z,564.00
2023-05-13T01:20:34.426Z,565.00
2023-05-13T01:20:48.407Z,564.00
2023-05-13T01:21:02.453Z,564.00
2023-05-13T01:21:16.445Z,563.00
2023-05-13T01:21:44.415Z,565.00
2023-05-13T01:21:58.405Z,564.00
2023-05-13T01:22:12.413Z,565.00
2023-05-13T01:22:26.414Z,565.00
2023-05-13T01:22:54.368Z,566.00
2023-05-13T01:23:08.350Z,566.00
2023-05-13T01:23:22.346Z,565.00
2023-05-13T01:23:36.344Z,564.00
2023-05-13T01:24:04.357Z,562.00
2023-05-13T01:24:18.448Z,562.00
2023-05-13T01:24:32.543Z,562.00
2023-05-13T01:24:46.638Z,562.00
2023-05-13T01:25:14.652Z,562.00
2023-05-13T01:25:28.642Z,563.00
2023-05-13T01:25:42.621Z,563.00
2023-05-13T01:25:56.634Z,562.00
2023-05-13T01:26:24.608Z,563.00
2023-05-13T01:26:38.606Z,563.00
2023-05-13T01:26:52.615Z,563.00
2023-05-13T01:27:06.639Z,563.00
2023-05-13T01:27:34.639Z,564.00
2023-05-13T01:27:48.628Z,563.00
2023-05-13T01:28:02.624Z,564.00
2023-05-13T01:28:16.619Z,564.00
2023-05-13T01:28:44.612Z,563.00
2023-05-13T01:28:58.600Z,563.00
2023-05-13T01:29:12.600Z,562.00
2023-05-13T01:29:26.583Z,562.00
2023-05-13T01:29:54.557Z,562.00
2023-05-13T01:30:08.553Z,562.00
2023-05-13T01:30:22.893Z,563.00
2023-05-13T01:30:37.144Z,563.00
2023-05-13T01:30:51.204Z,563.00
2023-05-13T01:31:05.269Z,563.00
2023-05-13T01:31:19.344Z,563.00
2023-05-13T01:31:33.500Z,564.00
2023-05-13T01:31:47.575Z,564.00
2023-05-13T01:32:15.514Z,563.00
2023-05-13T01:32:29.530Z,564.00
2023-05-13T01:32:43.596Z,564.00
2023-05-13T01:32:57.680Z,563.00
2023-05-13T01:33:25.631Z,563.00
2023-05-13T01:33:39.622Z,564.00
2023-05-13T01:33:53.711Z,564.00
2023-05-13T01:34:07.695Z,563.00
2023-05-13T01:34:35.694Z,564.00
2023-05-13T01:34:49.683Z,564.00
2023-05-13T01:35:03.680Z,564.00
2023-05-13T01:35:17.683Z,565.00
2023-05-13T01:35:45.642Z,565.00
2023-05-13T01:35:59.673Z,564.00
2023-05-13T01:36:13.678Z,564.00
2023-05-13T01:36:27.670Z,562.00
2023-05-13T01:36:55.656Z,561.00
2023-05-13T01:37:09.649Z,560.00
2023-05-13T01:37:23.636Z,561.00
2023-05-13T01:37:37.631Z,561.00
2023-05-13T01:38:05.607Z,561.00
2023-05-13T01:38:19.603Z,561.00
2023-05-13T01:38:33.587Z,561.00
2023-05-13T01:38:47.580Z,561.00
2023-05-13T01:39:15.547Z,561.00
2023-05-13T01:39:29.583Z,561.00
2023-05-13T01:39:43.598Z,560.00
2023-05-13T01:39:57.597Z,560.00
2023-05-13T01:40:39.537Z,561.00
2023-05-13T01:40:53.751Z,561.00
2023-05-13T01:41:07.770Z,561.00
2023-05-13T01:41:35.811Z,561.00
2023-05-13T01:41:49.798Z,561.00
2023-05-13T01:42:03.810Z,561.00
2023-05-13T01:42:17.807Z,560.00
2023-05-13T01:42:45.795Z,560.00
2023-05-13T01:42:59.794Z,559.00
2023-05-13T01:43:13.786Z,559.00
2023-05-13T01:43:27.784Z,559.00
2023-05-13T01:43:41.783Z,560.00
2023-05-13T01:43:55.772Z,560.00
2023-05-13T01:44:09.765Z,559.00
2023-05-13T01:44:23.748Z,560.00
2023-05-13T01:44:37.738Z,560.00
2023-05-13T01:45:05.711Z,560.00
2023-05-13T01:45:19.698Z,560.00
2023-05-13T01:45:33.725Z,560.00
2023-05-13T01:45:47.720Z,560.00
2023-05-13T01:46:15.729Z,559.00
2023-05-13T01:46:29.834Z,560.00
2023-05-13T01:46:44.019Z,560.00
2023-05-13T01:46:58.058Z,561.00
2023-05-13T01:47:26.088Z,561.00
2023-05-13T01:47:40.099Z,560.00
2023-05-13T01:47:54.206Z,561.00
2023-05-13T01:48:08.263Z,561.00
2023-05-13T01:48:36.238Z,560.00
2023-05-13T01:48:50.240Z,561.00
2023-05-13T01:49:04.242Z,560.00
2023-05-13T01:49:18.239Z,560.00
2023-05-13T01:49:46.199Z,560.00
2023-05-13T01:50:00.327Z,560.00
2023-05-13T01:50:14.360Z,560.00
2023-05-13T01:50:28.368Z,560.00
2023-05-13T01:50:56.330Z,561.00
2023-05-13T01:51:10.321Z,561.00
2023-05-13T01:51:24.309Z,562.00
2023-05-13T01:51:38.316Z,563.00
2023-05-13T01:52:06.287Z,562.00
2023-05-13T01:52:20.270Z,562.00
2023-05-13T01:52:34.274Z,562.00
2023-05-13T01:52:48.277Z,561.00
2023-05-13T01:53:16.264Z,561.00
2023-05-13T01:53:30.251Z,561.00
2023-05-13T01:53:44.226Z,560.00
2023-05-13T01:53:58.222Z,560.00
2023-05-13T01:54:26.177Z,560.00
2023-05-13T01:54:40.180Z,560.00
2023-05-13T01:54:54.183Z,562.00
2023-05-13T01:55:08.191Z,562.00
2023-05-13T01:55:36.165Z,562.00
2023-05-13T01:55:50.187Z,563.00
2023-05-13T01:56:04.184Z,562.00
2023-05-13T01:56:18.945Z,561.00
2023-05-13T01:56:32.960Z,562.00
2023-05-13T01:56:46.947Z,562.00
2023-05-13T01:57:00.938Z,562.00
2023-05-13T01:57:14.933Z,562.00
2023-05-13T01:57:28.936Z,561.00
2023-05-13T01:57:56.907Z,561.00
2023-05-13T01:58:10.905Z,562.00
2023-05-13T01:58:24.905Z,562.00
2023-05-13T01:58:38.896Z,560.00
2023-05-13T01:59:06.857Z,561.00
2023-05-13T01:59:20.846Z,561.00
2023-05-13T01:59:34.830Z,562.00
2023-05-13T01:59:48.825Z,562.00
2023-05-13T02:00:16.806Z,563.00
2023-05-13T02:00:30.799Z,563.00
2023-05-13T02:00:44.827Z,562.00
2023-05-13T02:00:58.827Z,562.00
2023-05-13T02:01:26.835Z,562.00
2023-05-13T02:01:40.844Z,561.00
2023-05-13T02:01:54.929Z,562.00
2023-05-13T02:02:09.009Z,561.00
2023-05-13T02:02:37.072Z,560.00
2023-05-13T02:02:51.186Z,560.00
2023-05-13T02:03:05.320Z,560.00
2023-05-13T02:03:19.453Z,560.00
2023-05-13T02:03:47.530Z,561.00
2023-05-13T02:04:01.629Z,560.00
2023-05-13T02:04:15.674Z,560.00
2023-05-13T02:04:29.657Z,560.00
2023-05-13T02:04:57.597Z,562.00
2023-05-13T02:05:11.599Z,562.00
2023-05-13T02:05:25.602Z,563.00
2023-05-13T02:05:39.608Z,563.00
2023-05-13T02:06:07.579Z,564.00
2023-05-13T02:06:21.566Z,564.00
2023-05-13T02:06:35.566Z,565.00
2023-05-13T02:06:49.551Z,565.00
2023-05-13T02:07:17.546Z,565.00
2023-05-13T02:07:31.537Z,564.00
2023-05-13T02:07:45.543Z,564.00
2023-05-13T02:07:59.553Z,565.00
2023-05-13T02:08:27.566Z,564.00
2023-05-13T02:08:41.558Z,565.00
2023-05-13T02:08:55.559Z,565.00
2023-05-13T02:09:09.546Z,566.00
2023-05-13T02:09:37.508Z,564.00
2023-05-13T02:09:51.521Z,563.00
2023-05-13T02:10:05.501Z,563.00
2023-05-13T02:10:19.731Z,563.00
2023-05-13T02:10:47.909Z,562.00
2023-05-13T02:11:02.019Z,562.00
2023-05-13T02:11:16.011Z,561.00
2023-05-13T02:11:29.996Z,561.00
2023-05-13T02:11:57.966Z,561.00
2023-05-13T02:12:11.950Z,562.00
2023-05-13T02:12:25.923Z,561.00
2023-05-13T02:12:39.917Z,561.00
2023-05-13T02:13:07.877Z,560.00
2023-05-13T02:13:21.858Z,558.00
2023-05-13T02:13:35.843Z,558.00
2023-05-13T02:13:49.832Z,559.00
2023-05-13T02:14:17.797Z,558.00
2023-05-13T02:14:31.795Z,558.00
2023-05-13T02:14:45.779Z,557.00
2023-05-13T02:14:59.783Z,556.00
2023-05-13T02:15:27.761Z,557.00
2023-05-13T02:15:41.753Z,556.00
2023-05-13T02:15:55.805Z,556.00
2023-05-13T02:16:09.810Z,555.00
2023-05-13T02:16:37.820Z,555.00
2023-05-13T02:16:51.877Z,554.00
2023-05-13T02:17:05.900Z,553.00
2023-05-13T02:17:19.885Z,553.00
2023-05-13T02:17:47.842Z,551.00
2023-05-13T02:18:01.877Z,552.00
2023-05-13T02:18:15.960Z,552.00
2023-05-13T02:18:29.997Z,552.00
2023-05-13T02:18:58.080Z,551.00
2023-05-13T02:19:12.262Z,551.00
2023-05-13T02:19:26.291Z,552.00
2023-05-13T02:19:40.272Z,552.00
2023-05-13T02:20:08.253Z,552.00
2023-05-13T02:20:22.516Z,553.00
2023-05-13T02:20:36.743Z,553.00
2023-05-13T02:20:50.732Z,553.00
2023-05-13T02:21:18.681Z,553.00
2023-05-13T02:21:32.684Z,554.00
2023-05-13T02:21:46.688Z,554.00
2023-05-13T02:22:00.672Z,556.00
2023-05-13T02:22:28.649Z,556.00
2023-05-13T02:22:42.645Z,556.00
2023-05-13T02:22:56.629Z,557.00
2023-05-13T02:23:10.617Z,556.00
2023-05-13T02:23:38.596Z,553.00
2023-05-13T02:23:52.591Z,554.00
2023-05-13T02:24:06.574Z,554.00
2023-05-13T02:24:20.545Z,554.00
2023-05-13T02:24:48.511Z,553.00
2023-05-13T02:25:02.550Z,553.00
2023-05-13T02:25:16.591Z,553.00
2023-05-13T02:25:30.583Z,554.00
2023-05-13T02:25:58.528Z,554.00
2023-05-13T02:26:12.517Z,554.00
2023-05-13T02:26:26.501Z,554.00
2023-05-13T02:26:40.489Z,554.00
2023-05-13T02:27:08.460Z,554.00
2023-05-13T02:27:22.447Z,554.00
2023-05-13T02:27:36.485Z,555.00
2023-05-13T02:27:50.486Z,555.00
2023-05-13T02:28:18.538Z,555.00
2023-05-13T02:28:32.531Z,555.00
2023-05-13T02:28:46.520Z,554.00
2023-05-13T02:29:00.536Z,554.00
2023-05-13T02:29:28.485Z,555.00
2023-05-13T02:29:42.464Z,555.00
2023-05-13T02:29:56.461Z,555.00
2023-05-13T02:30:10.458Z,554.00
2023-05-13T02:30:24.524Z,554.00
2023-05-13T02:30:38.542Z,555.00
2023-05-13T02:30:52.524Z,555.00
2023-05-13T02:31:06.514Z,555.00
2023-05-13T02:31:20.574Z,556.00
2023-05-13T02:31:48.634Z,555.00
2023-05-13T02:32:02.724Z,555.00
2023-05-13T02:32:16.825Z,556.00
2023-05-13T02:32:31.006Z,556.00
2023-05-13T02:32:59.099Z,556.00
2023-05-13T02:33:13.235Z,557.00
2023-05-13T02:33:27.235Z,557.00
2023-05-13T02:33:41.292Z,558.00
2023-05-13T02:34:09.257Z,558.00
2023-05-13T02:34:23.259Z,558.00
2023-05-13T02:34:37.247Z,558.00
2023-05-13T02:34:51.231Z,557.00
2023-05-13T02:35:19.201Z,557.00
2023-05-13T02:35:33.225Z,558.00
2023-05-13T02:35:47.236Z,558.00
2023-05-13T02:36:01.230Z,558.00
2023-05-13T02:36:29.181Z,558.00
2023-05-13T02:36:43.193Z,558.00
2023-05-13T02:36:57.180Z,556.00
2023-05-13T02:37:11.168Z,556.00
2023-05-13T02:37:39.176Z,555.00
2023-05-13T02:37:53.157Z,554.00
2023-05-13T02:38:07.181Z,554.00
2023-05-13T02:38:21.167Z,554.00
2023-05-13T02:38:49.139Z,554.00
2023-05-13T02:39:03.158Z,554.00
2023-05-13T02:39:17.156Z,553.00
2023-05-13T02:39:31.166Z,554.00
2023-05-13T02:39:59.135Z,554.00
2023-05-13T02:40:13.129Z,554.00
2023-05-13T02:40:27.131Z,555.00
2023-05-13T02:40:41.108Z,555.00
2023-05-13T02:41:09.050Z,554.00
2023-05-13T02:41:23.042Z,556.00
2023-05-13T02:41:37.051Z,556.00
2023-05-13T02:41:51.052Z,556.00
2023-05-13T02:42:19.003Z,556.00
2023-05-13T02:42:32.996Z,556.00
2023-05-13T02:42:46.981Z,556.00
2023-05-13T02:43:00.967Z,556.00
2023-05-13T02:43:28.953Z,555.00
2023-05-13T02:43:43.496Z,555.00
2023-05-13T02:43:57.476Z,555.00
2023-05-13T02:44:11.479Z,555.00
2023-05-13T02:44:39.432Z,555.00
2023-05-13T02:44:53.434Z,555.00
2023-05-13T02:45:07.423Z,555.00
2023-05-13T02:45:21.401Z,556.00
2023-05-13T02:45:49.408Z,555.00
2023-05-13T02:46:03.489Z,554.00
2023-05-13T02:46:17.499Z,554.00
2023-05-13T02:46:31.733Z,554.00
2023-05-13T02:46:59.799Z,554.00
2023-05-13T02:47:13.805Z,553.00
2023-05-13T02:47:27.914Z,553.00
2023-05-13T02:47:41.949Z,553.00
2023-05-13T02:48:10.120Z,552.00
2023-05-13T02:48:24.169Z,552.00
2023-05-13T02:48:38.175Z,553.00
2023-05-13T02:48:52.167Z,554.00
2023-05-13T02:49:20.143Z,553.00
2023-05-13T02:49:34.132Z,553.00
2023-05-13T02:49:48.152Z,553.00
2023-05-13T02:50:02.153Z,554.00
2023-05-13T02:50:30.126Z,554.00
2023-05-13T02:50:44.121Z,553.00
2023-05-13T02:50:58.116Z,553.00
2023-05-13T02:51:12.105Z,554.00
2023-05-13T02:51:40.090Z,553.00
2023-05-13T02:51:54.079Z,553.00
2023-05-13T02:52:08.072Z,553.00
2023-05-13T02:52:22.064Z,552.00
2023-05-13T02:52:50.031Z,552.00
2023-05-13T02:53:04.021Z,552.00
2023-05-13T02:53:18.050Z,551.00
2023-05-13T02:53:32.041Z,551.00
2023-05-13T02:54:00.007Z,551.00
2023-05-13T02:54:14.014Z,552.00
2023-05-13T02:54:27.992Z,552.00
2023-05-13T02:54:42.025Z,552.00
2023-05-13T02:55:10.063Z,554.00
2023-05-13T02:55:24.143Z,553.00
2023-05-13T02:55:38.153Z,553.00
2023-05-13T02:55:52.141Z,553.00
2023-05-13T02:56:06.142Z,552.00
2023-05-13T02:56:20.126Z,553.00
2023-05-13T02:56:34.137Z,554.00
2023-05-13T02:56:48.145Z,554.00
2023-05-13T02:57:02.138Z,554.00
2023-05-13T02:57:30.099Z,553.00
2023-05-13T02:57:44.098Z,554.00
2023-05-13T02:57:58.096Z,554.00
2023-05-13T02:58:12.085Z,554.00
2023-05-13T02:58:40.067Z,556.00
2023-05-13T02:58:54.058Z,556.00
2023-05-13T02:59:08.026Z,556.00
2023-05-13T02:59:22.028Z,556.00
2023-05-13T02:59:50.008Z,557.00
2023-05-13T03:00:04.007Z,557.00
2023-05-13T03:00:17.994Z,556.00
2023-05-13T03:00:31.976Z,556.00
2023-05-13T03:00:59.965Z,555.00
2023-05-13T03:01:14.020Z,555.00
2023-05-13T03:01:28.055Z,555.00
2023-05-13T03:01:42.100Z,555.00
2023-05-13T03:02:10.110Z,554.00
2023-05-13T03:02:24.172Z,553.00
2023-05-13T03:02:38.320Z,553.00
2023-05-13T03:02:52.485Z,553.00
2023-05-13T03:03:20.597Z,551.00
2023-05-13T03:03:34.841Z,550.00
2023-05-13T03:03:49.003Z,551.00
2023-05-13T03:04:03.047Z,551.00
2023-05-13T03:04:31.018Z,551.00
2023-05-13T03:04:45.088Z,551.00
2023-05-13T03:04:59.082Z,549.00
2023-05-13T03:05:13.087Z,550.00
2023-05-13T03:05:41.073Z,551.00
2023-05-13T03:05:55.065Z,551.00
2023-05-13T03:06:09.063Z,551.00
2023-05-13T03:06:23.059Z,550.00
2023-05-13T03:06:51.059Z,549.00
2023-05-13T03:07:05.059Z,550.00
2023-05-13T03:07:19.039Z,551.00
2023-05-13T03:07:33.041Z,549.00
2023-05-13T03:08:00.984Z,549.00
2023-05-13T03:08:15.005Z,548.00
2023-05-13T03:08:29.033Z,549.00
2023-05-13T03:08:43.012Z,549.00
2023-05-13T03:09:11.014Z,549.00
2023-05-13T03:09:25.026Z,550.00
2023-05-13T03:09:39.044Z,550.00
2023-05-13T03:09:53.077Z,550.00
2023-05-13T03:10:21.276Z,549.00
2023-05-13T03:10:35.432Z,549.00
2023-05-13T03:10:49.448Z,549.00
2023-05-13T03:11:03.453Z,549.00
2023-05-13T03:11:31.423Z,549.00
2023-05-13T03:11:45.432Z,549.00
2023-05-13T03:11:59.421Z,549.00
2023-05-13T03:12:13.436Z,549.00
2023-05-13T03:12:41.406Z,550.00
2023-05-13T03:12:55.398Z,550.00
2023-05-13T03:13:09.388Z,550.00
2023-05-13T03:13:23.382Z,549.00
2023-05-13T03:13:51.348Z,549.00
2023-05-13T03:14:05.335Z,549.00
2023-05-13T03:14:19.338Z,550.00
2023-05-13T03:14:33.334Z,549.00
2023-05-13T03:15:01.305Z,549.00
2023-05-13T03:15:15.312Z,548.00
2023-05-13T03:15:29.315Z,548.00
2023-05-13T03:15:44.620Z,548.00
2023-05-13T03:16:10.179Z,547.00
2023-05-13T03:16:24.261Z,547.00
2023-05-13T03:16:38.389Z,546.00
2023-05-13T03:16:52.431Z,546.00
2023-05-13T03:17:20.435Z,545.00
2023-05-13T03:17:34.463Z,545.00
2023-05-13T03:17:48.534Z,545.00
2023-05-13T03:18:02.587Z,544.00
2023-05-13T03:18:30.692Z,541.00
2023-05-13T03:18:44.730Z,541.00
2023-05-13T03:18:58.878Z,541.00
2023-05-13T03:19:12.999Z,541.00
2023-05-13T03:19:41.099Z,542.00
2023-05-13T03:19:55.098Z,542.00
2023-05-13T03:20:09.086Z,543.00
2023-05-13T03:20:23.281Z,542.00
2023-05-13T03:20:51.354Z,541.00
2023-05-13T03:21:05.349Z,541.00
2023-05-13T03:21:19.343Z,541.00
2023-05-13T03:21:33.344Z,542.00
2023-05-13T03:21:47.336Z,542.00
2023-05-13T03:22:01.328Z,542.00
2023-05-13T03:22:15.324Z,543.00
2023-05-13T03:22:29.325Z,544.00
2023-05-13T03:22:43.333Z,545.00
2023-05-13T03:23:11.301Z,545.00
2023-05-13T03:23:25.288Z,545.00
2023-05-13T03:23:39.300Z,545.00
2023-05-13T03:23:53.307Z,545.00
2023-05-13T03:24:21.287Z,544.00
2023-05-13T03:24:35.279Z,544.00
2023-05-13T03:24:49.266Z,544.00
2023-05-13T03:25:03.254Z,543.00
2023-05-13T03:25:31.206Z,545.00
2023-05-13T03:25:45.192Z,544.00
2023-05-13T03:25:59.192Z,545.00
2023-05-13T03:26:13.179Z,545.00
2023-05-13T03:26:41.173Z,544.00
2023-05-13T03:26:55.163Z,544.00
2023-05-13T03:27:09.167Z,545.00
2023-05-13T03:27:23.162Z,545.00
2023-05-13T03:27:51.134Z,546.00
2023-05-13T03:28:05.148Z,546.00
2023-05-13T03:28:19.133Z,546.00
2023-05-13T03:28:33.124Z,546.00
2023-05-13T03:29:01.118Z,546.00
2023-05-13T03:29:15.125Z,546.00
2023-05-13T03:29:29.146Z,546.00
2023-05-13T03:29:43.140Z,547.00
2023-05-13T03:30:11.119Z,546.00
2023-05-13T03:30:25.139Z,546.00
2023-05-13T03:30:39.131Z,547.00
2023-05-13T03:30:53.164Z,547.00
2023-05-13T03:31:21.183Z,545.00
2023-05-13T03:31:35.307Z,543.00
2023-05-13T03:31:49.500Z,543.00
2023-05-13T03:32:03.551Z,542.00
2023-05-13T03:32:31.530Z,541.00
2023-05-13T03:32:45.596Z,541.00
2023-05-13T03:32:59.682Z,540.00
2023-05-13T03:33:13.733Z,540.00
2023-05-13T03:33:41.710Z,540.00
2023-05-13T03:33:55.724Z,540.00
2023-05-13T03:34:09.699Z,540.00
2023-05-13T03:34:23.683Z,540.00
2023-05-13T03:34:37.681Z,541.00
2023-05-13T03:34:51.675Z,541.00
2023-05-13T03:35:05.661Z,541.00
2023-05-13T03:35:19.658Z,542.00